Flight Track Log - Related Links

Times and Time Zones

All times are in EDT time to prevent confusion due to time zone crossing. See the AAL832 flight status page for this flight to view local times or setup timezone preferences in your user account.

Time Position Orientation Groundspeed Altitude Reporting Facility
EDT Latitude Longitude Course Direction KTS MPH feet Rate Location/Type
Tue 06:01:21 PM 41.9780 -87.9150 320° Northwest 28 32  Level FlightAware ADS-B
Tue 06:01:47 PM 41.9790 -87.9170 304° West 32 37 156 Level FlightAware ADS-B
Tue 06:02:30 PM 41.9810 -87.9180 340° North 28 32 171 Level FlightAware ADS-B
Tue 06:03:12 PM 41.9830 -87.9180 360° North 11 13 202 Level FlightAware ADS-B
Tue 06:04:46 PM 41.9840 -87.9180 360° North 14 16 245 Level FlightAware ADS-B
Tue 06:06:28 PM 41.9840 -87.8860 90° East 174 200 800 763 Climbing FlightAware ADS-B
Tue 06:06:44 PM 41.9790 -87.8710 114° Southeast 187 215 1,500 2,182 Climbing FlightAware ADS-B
Tue 06:07:12 PM 41.9590 -87.8470 138° Southeast 212 244 2,400 1,821 Climbing FlightAware ADS-B
Tue 06:07:40 PM 41.9360 -87.8220 141° Southeast 245 282 3,200 1,756 Climbing FlightAware ADS-B
Tue 06:07:53 PM 41.9250 -87.8150 155° Southeast 258 297 3,600 2,571 Climbing FlightAware ADS-B
Tue 06:08:08 PM 41.9030 -87.8120 174° South 269 310 4,400 2,930 Climbing FlightAware ADS-B
Tue 06:08:36 PM 41.8670 -87.8100 178° South 277 319 5,700 2,778 Climbing FlightAware ADS-B
Tue 06:09:02 PM 41.8340 -87.8070 176° South 285 328 6,900 2,889 Climbing FlightAware ADS-B
Tue 06:09:30 PM 41.7950 -87.8030 176° South 293 337 8,300 2,727 Climbing FlightAware ADS-B
Tue 06:09:46 PM 41.7740 -87.8000 174° South 300 345 8,900 2,195 Climbing FlightAware ADS-B
Tue 06:10:11 PM 41.7390 -87.7940 173° South 304 350 9,800 1,629 Climbing FlightAware ADS-B
Tue 06:10:56 PM 41.6750 -87.7790 170° South 327 376 10,800 1,590 Climbing FlightAware ADS-B
Tue 06:11:34 PM 41.6150 -87.7660 171° South 356 410 12,000 2,154 Climbing FlightAware ADS-B
Tue 06:12:14 PM 41.5480 -87.7520 171° South 376 433 13,600 2,571 Climbing FlightAware ADS-B
Tue 06:12:58 PM 41.4710 -87.7360 171° South 388 447 15,600 2,682 Climbing FlightAware ADS-B
Tue 06:13:39 PM 41.3970 -87.7250 174° South 395 455 17,400 2,188 Climbing FlightAware ADS-B
Tue 06:14:34 PM 41.3180 -87.7250 180° South 407 468 19,100 2,337 Climbing FlightAware ADS-B
Tue 06:15:14 PM 41.2180 -87.7260 180° South 420 483 21,100 2,500 Climbing FlightAware ADS-B
Tue 06:15:58 PM 41.1320 -87.7160 175° South 433 498 22,600 1,977 Climbing FlightAware ADS-B
Tue 06:16:42 PM 41.0430 -87.7040 174° South 442 509 24,000 1,902 Climbing FlightAware ADS-B
Tue 06:17:20 PM 40.9670 -87.6940 174° South 448 516 25,200 1,852 Climbing FlightAware ADS-B
Tue 06:18:03 PM 40.8760 -87.6820 174° South 454 522 26,500 1,884 Climbing FlightAware ADS-B
Tue 06:18:46 PM 40.7880 -87.6700 174° South 453 521 27,900 1,586 Climbing FlightAware ADS-B
Tue 06:19:30 PM 40.6950 -87.6580 174° South 462 532 28,800 1,357 Climbing FlightAware ADS-B
Tue 06:20:10 PM 40.6110 -87.6460 174° South 465 535 29,800 1,829 Climbing FlightAware ADS-B
Tue 06:20:52 PM 40.5160 -87.6340 175° South 457 526 31,300 2,138 Climbing FlightAware ADS-B
Tue 06:21:37 PM 40.4270 -87.6230 175° South 441 507 32,900 2,093 Climbing FlightAware ADS-B
Tue 06:22:18 PM 40.3410 -87.6120 174° South 428 493 34,300 1,807 Climbing FlightAware ADS-B
Tue 06:23:00 PM 40.2600 -87.6020 175° South 420 483 35,400 1,259 Climbing FlightAware ADS-B
Tue 06:23:39 PM 40.1890 -87.5920 174° South 419 482 36,000 375 Climbing FlightAware ADS-B
Tue 06:24:36 PM 40.0750 -87.5740 173° South 429 494 36,000  Level FlightAware ADS-B
Tue 06:25:20 PM 39.9870 -87.5600 173° South 430 495 36,000 143 Level FlightAware ADS-B
Tue 06:26:00 PM 39.9080 -87.5470 173° South 430 495 36,200 732 Climbing FlightAware ADS-B
Tue 06:26:42 PM 39.8270 -87.5320 172° South 428 493 37,000 585 Climbing FlightAware ADS-B
Tue 06:27:22 PM 39.7480 -87.5140 170° South 430 495 37,000  Level FlightAware ADS-B
Tue 06:28:06 PM 39.6610 -87.4960 171° South 430 495 37,000  Level FlightAware ADS-B
Tue 06:28:50 PM 39.5760 -87.4560 160° South 458 527 37,000  Level FlightAware ADS-B
Tue 06:29:30 PM 39.5000 -87.4050 153° Southeast 455 524 37,000  Level FlightAware ADS-B
Tue 06:30:12 PM 39.4210 -87.3610 157° South 447 514 37,000  Level FlightAware ADS-B
Tue 06:30:50 PM 39.3480 -87.3230 158° South 447 514 37,000  Level FlightAware ADS-B
Tue 06:31:36 PM 39.2590 -87.2750 157° South 448 516 37,000  Level FlightAware ADS-B
Tue 06:32:18 PM 39.1790 -87.2320 157° South 447 514 37,000  Level FlightAware ADS-B
Tue 06:33:02 PM 39.0960 -87.1860 157° South 448 516 37,000  Level FlightAware ADS-B
Tue 06:33:44 PM 39.0160 -87.1430 157° South 446 513 37,000  Level FlightAware ADS-B
Tue 06:34:25 PM 38.9400 -87.1020 157° South 443 510 37,000  Level FlightAware ADS-B
Tue 06:35:08 PM 38.8570 -87.0570 157° South 441 507 37,000  Level FlightAware ADS-B
Tue 06:35:50 PM 38.7770 -87.0140 157° South 441 507 37,000  Level FlightAware ADS-B
Tue 06:36:31 PM 38.7010 -86.9730 157° South 444 511 37,000  Level FlightAware ADS-B
Tue 06:37:13 PM 38.6210 -86.9300 157° South 440 506 37,000  Level FlightAware ADS-B
Tue 06:37:51 PM 38.5490 -86.8910 157° South 442 509 37,000  Level FlightAware ADS-B
Tue 06:38:37 PM 38.4630 -86.8450 157° South 447 514 37,000  Level FlightAware ADS-B
Tue 06:39:19 PM 38.3820 -86.8020 157° South 451 519 37,000  Level FlightAware ADS-B
Tue 06:40:01 PM 38.3000 -86.7590 158° South 452 520 37,000  Level FlightAware ADS-B
Tue 06:41:13 PM 38.2490 -86.7310 157° South 450 518 37,000  Level FlightAware ADS-B
Tue 06:41:53 PM 38.0860 -86.6450 157° South 449 517 37,000  Level FlightAware ADS-B
Tue 06:42:36 PM 38.0090 -86.6050 158° South 449 517 37,000  Level FlightAware ADS-B
Tue 06:43:17 PM 37.9260 -86.5610 157° South 450 518 37,000  Level FlightAware ADS-B
Tue 06:44:01 PM 37.8400 -86.5160 158° South 451 519 37,000  Level FlightAware ADS-B
Tue 06:44:41 PM 37.7630 -86.4760 158° South 455 524 37,000  Level FlightAware ADS-B
Tue 06:45:21 PM 37.6850 -86.4350 157° South 456 525 37,000  Level FlightAware ADS-B
Tue 06:46:03 PM 37.6040 -86.3930 158° South 457 526 37,000  Level FlightAware ADS-B
Tue 06:46:45 PM 37.5210 -86.3500 158° South 458 527 37,000  Level FlightAware ADS-B
Tue 06:47:27 PM 37.4530 -86.3140 157° South 457 526 37,000  Level FlightAware ADS-B
Tue 06:47:58 PM 37.3760 -86.2748 158° South 458 527 37,000  Level FlightAware ADS-B
Tue 06:48:29 PM 37.3165 -86.2440 158° South 456 525 37,000  Level FlightAware ADS-B
Tue 06:49:01 PM 37.2539 -86.2116 158° South 453 521 37,000  Level FlightAware ADS-B
Tue 06:49:32 PM 37.1949 -86.1814 158° South 450 518 37,000  Level FlightAware ADS-B
Tue 06:50:26 PM 37.0970 -86.1310 158° South 448 516 37,000  Level FlightAware ADS-B
Tue 06:51:07 PM 37.0120 -86.0880 158° South 448 516 37,000  Level FlightAware ADS-B
Tue 06:51:44 PM 36.9407 -86.0512 158° South 448 516 37,000  Level FlightAware ADS-B
Tue 06:52:14 PM 36.8828 -86.0217 158° South 448 516 37,000  Level FlightAware ADS-B
Tue 06:52:45 PM 36.8242 -85.9918 158° South 450 518 37,000  Level FlightAware ADS-B
Tue 06:53:16 PM 36.7646 -85.9614 158° South 451 519 37,000  Level FlightAware ADS-B
Tue 06:53:47 PM 36.7049 -85.9311 158° South 452 520 37,000  Level FlightAware ADS-B
Tue 06:54:17 PM 36.6454 -85.9010 158° South 453 521 37,000  Level FlightAware ADS-B
Tue 06:54:48 PM 36.5870 -85.8716 158° South 453 521 37,000  Level FlightAware ADS-B
Tue 06:55:18 PM 36.5283 -85.8419 158° South 452 520 37,000  Level FlightAware ADS-B
Tue 06:55:48 PM 36.4698 -85.8124 158° South 452 520 37,000  Level FlightAware ADS-B
Tue 06:56:18 PM 36.4110 -85.7829 158° South 451 519 37,000  Level FlightAware ADS-B
Tue 06:56:49 PM 36.3530 -85.7540 158° South 449 517 37,000  Level FlightAware ADS-B
Tue 06:57:09 PM 36.3130 -85.7338 158° South 450 518 37,000  Level FlightAware ADS-B
Tue 06:57:39 PM 36.2549 -85.7046 158° South 449 517 37,000  Level FlightAware ADS-B
Tue 06:58:10 PM 36.1962 -85.6752 158° South 448 516 37,000  Level FlightAware ADS-B
Tue 06:58:41 PM 36.1369 -85.6456 158° South 448 516 37,000  Level FlightAware ADS-B
Tue 06:59:11 PM 36.0790 -85.6166 158° South 448 516 37,000  Level FlightAware ADS-B
Tue 06:59:42 PM 36.0196 -85.5872 158° South 448 516 37,000  Level FlightAware ADS-B
Tue 07:00:13 PM 35.9606 -85.5578 158° South 449 517 37,000  Level FlightAware ADS-B
Tue 07:00:49 PM 35.8896 -85.5227 158° South 450 518 37,000  Level FlightAware ADS-B
Tue 07:01:20 PM 35.8312 -85.4938 158° South 450 518 37,000  Level FlightAware ADS-B
Tue 07:01:50 PM 35.7727 -85.4649 158° South 450 518 37,000  Level FlightAware ADS-B
Tue 07:02:20 PM 35.7144 -85.4362 158° South 449 517 37,000  Level FlightAware ADS-B
Tue 07:02:50 PM 35.6564 -85.4075 158° South 449 517 37,000  Level FlightAware ADS-B
Tue 07:03:29 PM 35.5825 -85.3711 158° South 449 517 37,000  Level FlightAware ADS-B
Tue 07:03:59 PM 35.5243 -85.3426 158° South 446 513 37,000  Level FlightAware ADS-B
Tue 07:04:29 PM 35.4663 -85.3141 158° South 445 512 37,000  Level FlightAware ADS-B
Tue 07:05:05 PM 35.3990 -85.2812 158° South 444 511 37,000  Level FlightAware ADS-B
Tue 07:05:38 PM 35.3354 -85.2501 158° South 444 511 37,000  Level FlightAware ADS-B
Tue 07:06:22 PM 35.2519 -85.2093 158° South 443 510 37,000  Level FlightAware ADS-B
Tue 07:07:00 PM 35.1797 -85.1742 158° South 444 511 37,000  Level FlightAware ADS-B
Tue 07:07:32 PM 35.1175 -85.1441 158° South 445 512 37,000  Level FlightAware ADS-B
Tue 07:08:27 PM 35.0124 -85.0930 158° South 445 512 37,000  Level FlightAware ADS-B
Tue 07:09:23 PM 34.9060 -85.0420 159° South 442 509 37,000  Level FlightAware ADS-B
Tue 07:10:08 PM 34.8220 -85.0010 158° South 439 505 37,000  Level FlightAware ADS-B
Tue 07:10:16 PM 34.8068 -84.9939 159° South 441 507 37,000  Level FlightAware ADS-B
Tue 07:10:51 PM 34.7405 -84.9621 158° South 439 505 37,000  Level FlightAware ADS-B
Tue 07:11:23 PM 34.6790 -84.9326 158° South 438 504 37,000  Level FlightAware ADS-B
Tue 07:11:55 PM 34.6199 -84.9040 158° South 438 504 37,000  Level FlightAware ADS-B
Tue 07:12:28 PM 34.5579 -84.8744 159° South 438 504 37,000  Level FlightAware ADS-B
Tue 07:12:59 PM 34.4982 -84.8459 159° South 438 504 37,000  Level FlightAware ADS-B
Tue 07:13:30 PM 34.4397 -84.8180 159° South 435 501 37,000  Level FlightAware ADS-B
Tue 07:14:01 PM 34.3818 -84.7904 159° South 435 501 37,000  Level FlightAware ADS-B
Tue 07:14:55 PM 34.2830 -84.7430 158° South 436 502 37,000  Level FlightAware ADS-B
Tue 07:15:33 PM 34.2100 -84.7090 159° South 435 501 37,000  Level FlightAware ADS-B
Tue 07:16:19 PM 34.1230 -84.6670 158° South 435 501 37,000  Level FlightAware ADS-B
Tue 07:17:00 PM 34.0500 -84.6330 159° South 435 501 37,000  Level FlightAware ADS-B
Tue 07:17:37 PM 33.9870 -84.6030 158° South 434 499 37,000  Level FlightAware ADS-B
Tue 07:18:20 PM 33.8990 -84.5620 159° South 434 499 37,000  Level FlightAware ADS-B
Tue 07:19:00 PM 33.8190 -84.5370 165° South 427 491 37,000  Level FlightAware ADS-B
Tue 07:19:11 PM 33.7971 -84.5357 177° South 427 491 37,000  Level FlightAware ADS-B
Tue 07:19:42 PM 33.7354 -84.5318 177° South 440 506 37,000 295 Level FlightAware ADS-B
Tue 07:20:12 PM 33.6738 -84.5278 177° South 445 512 37,300 1,121 Climbing FlightAware ADS-B
Tue 07:21:13 PM 33.5530 -84.5210 177° South 429 494 38,700 990 Climbing FlightAware ADS-B
Tue 07:21:55 PM 33.4680 -84.5170 178° South 432 497 39,000 220 Climbing FlightAware ADS-B
Tue 07:22:35 PM 33.3890 -84.5130 178° South 433 498 39,000  Level FlightAware ADS-B
Tue 07:23:17 PM 33.3040 -84.5090 178° South 433 498 39,000  Level FlightAware ADS-B
Tue 07:23:57 PM 33.2250 -84.5040 177° South 433 498 39,000  Level FlightAware ADS-B
Tue 07:24:57 PM 33.1050 -84.4980 178° South 432 497 39,000  Level FlightAware ADS-B
Tue 07:25:05 PM 33.0900 -84.4980 180° South 432 497 39,000  Level FlightAware ADS-B
Tue 07:26:19 PM 32.9420 -84.4900 177° South 431 496 39,000  Level FlightAware ADS-B
Tue 07:27:03 PM 32.8520 -84.4910 181° South 430 495 39,000  Level FlightAware ADS-B
Tue 07:27:44 PM 32.7880 -84.4940 182° South 428 493 39,000  Level FlightAware ADS-B
Tue 07:28:24 PM 32.6950 -84.5020 184° South 428 493 39,000  Level FlightAware ADS-B
Tue 07:29:07 PM 32.6080 -84.5100 184° South 430 495 39,000  Level FlightAware ADS-B
Tue 07:29:43 PM 32.5360 -84.5160 184° South 431 496 39,000  Level FlightAware ADS-B
Tue 07:30:48 PM 32.4070 -84.5290 185° South 434 499 39,000  Level FlightAware ADS-B
Tue 07:31:28 PM 32.3300 -84.5330 183° South 436 502 39,000  Level FlightAware ADS-B
Tue 07:32:09 PM 32.2420 -84.5320 179° South 439 505 39,000  Level FlightAware ADS-B
Tue 07:32:47 PM 32.1650 -84.5240 175° South 438 504 39,000  Level FlightAware ADS-B
Tue 07:33:35 PM 32.0820 -84.5140 174° South 438 504 39,000  Level FlightAware ADS-B
Tue 07:34:12 PM 32.0180 -84.5060 174° South 438 504 39,000  Level FlightAware ADS-B
Tue 07:35:01 PM 31.9340 -84.4960 174° South 438 504 39,000  Level FlightAware ADS-B
Tue 07:35:33 PM 31.8790 -84.4890 174° South 438 504 39,000  Level FlightAware ADS-B
Tue 07:36:21 PM 31.7970 -84.4790 174° South 438 504 39,000  Level FlightAware ADS-B
Tue 07:36:57 PM 31.7350 -84.4720 175° South 438 504 39,000  Level FlightAware ADS-B
Tue 07:37:45 PM 31.6530 -84.4610 173° South 438 504 39,000  Level FlightAware ADS-B
Tue 07:38:31 PM 31.5740 -84.4520 174° South 438 504 39,000  Level FlightAware ADS-B
Tue 07:39:07 PM 31.5130 -84.4440 174° South 438 504 39,000  Level FlightAware ADS-B
Tue 07:39:55 PM 31.4310 -84.4340 174° South 438 504 39,000  Level FlightAware ADS-B
Tue 07:40:32 PM 31.3670 -84.4260 174° South 438 504 39,000  Level FlightAware ADS-B
Tue 07:41:15 PM 31.2940 -84.4170 174° South 438 504 39,000  Level FlightAware ADS-B
Tue 07:42:01 PM 31.2150 -84.4070 174° South 438 504 39,000  Level FlightAware ADS-B
Tue 07:42:38 PM 31.1510 -84.4000 175° South 438 504 39,000  Level FlightAware ADS-B
Tue 07:43:32 PM 30.8830 -84.2140 149° Southeast 443 510 39,000  Level FlightAware ADS-B
Tue 07:44:16 PM 30.7960 -84.1690 156° South 441 507 39,000  Level FlightAware ADS-B
Tue 07:44:57 PM 30.7370 -84.1390 156° South 439 505 39,000  Level FlightAware ADS-B
Tue 07:45:42 PM 30.6400 -84.0880 156° South 433 498 39,000  Level FlightAware ADS-B
Tue 07:46:22 PM 30.5700 -84.0520 156° South 432 497 39,000  Level FlightAware ADS-B
Tue 07:47:06 PM 30.4880 -84.0100 156° South 432 497 39,000  Level FlightAware ADS-B
Tue 07:47:47 PM 30.4120 -83.9710 156° South 432 497 39,000  Level FlightAware ADS-B
Tue 07:49:29 PM 30.2280 -83.8770 156° South 435 501 39,000  Level FlightAware ADS-B
Tue 07:50:05 PM 30.1590 -83.8420 156° South 441 507 39,000  Level FlightAware ADS-B
Tue 07:50:50 PM 30.0770 -83.8000 156° South 442 509 39,000  Level FlightAware ADS-B
Tue 07:51:30 PM 30.0000 -83.7610 156° South 437 503 39,000  Level FlightAware ADS-B
Tue 07:52:15 PM 29.9150 -83.7180 156° South 440 506 39,000  Level FlightAware ADS-B
Tue 07:52:55 PM 29.8350 -83.6770 156° South 442 509 39,000  Level FlightAware ADS-B
Tue 07:53:35 PM 29.7580 -83.6380 156° South 444 511 39,000  Level FlightAware ADS-B
Tue 07:54:20 PM 29.6730 -83.5950 156° South 454 522 39,000  Level FlightAware ADS-B
Tue 07:55:00 PM 29.5980 -83.5580 157° South 456 525 39,000  Level FlightAware ADS-B
Tue 07:55:40 PM 29.5180 -83.5170 156° South 457 526 39,000  Level FlightAware ADS-B
Tue 07:56:40 PM 29.4010 -83.4590 157° South 455 524 39,000  Level FlightAware ADS-B
Tue 07:57:25 PM 29.3150 -83.4150 156° South 454 522 39,000  Level FlightAware ADS-B
Tue 07:58:05 PM 29.2370 -83.3760 156° South 455 524 39,000  Level FlightAware ADS-B
Tue 07:58:40 PM 29.1700 -83.3430 157° South 455 524 39,000  Level FlightAware ADS-B
Tue 07:59:28 PM 29.0830 -83.2990 156° South 455 524 39,000  Level FlightAware ADS-B
Tue 08:00:10 PM 28.9960 -83.2560 157° South 455 524 39,000  Level FlightAware ADS-B
Tue 08:00:50 PM 28.9190 -83.2180 157° South 453 521 39,000  Level FlightAware ADS-B
Tue 08:01:35 PM 28.8320 -83.1750 157° South 442 509 39,000  Level FlightAware ADS-B
Tue 08:02:15 PM 28.7560 -83.1370 156° South 441 507 39,000  Level FlightAware ADS-B
Tue 08:03:00 PM 28.6700 -83.0950 157° South 441 507 39,000  Level FlightAware ADS-B
Tue 08:03:41 PM 28.5950 -83.0580 157° South 441 507 39,000  Level FlightAware ADS-B
Tue 08:04:20 PM 28.5190 -83.0200 156° South 442 509 39,000  Level FlightAware ADS-B
Tue 08:05:00 PM 28.4420 -82.9820 157° South 442 509 39,000  Level FlightAware ADS-B
Tue 08:05:15 PM 28.4130 -82.9680 157° South 443 510 39,000  Level FlightAware ADS-B
Tue 08:06:40 PM 28.2480 -82.8870 157° South 450 518 39,000  Level FlightAware ADS-B
Tue 08:07:20 PM 28.1720 -82.8500 157° South 450 518 39,000  Level FlightAware ADS-B
Tue 08:08:05 PM 28.0860 -82.8080 157° South 447 514 39,000  Level FlightAware ADS-B
Tue 08:08:46 PM 28.0080 -82.7700 157° South 446 513 39,000  Level FlightAware ADS-B
Tue 08:09:31 PM 27.9250 -82.7220 153° Southeast 441 507 39,000  Level FlightAware ADS-B
Tue 08:10:12 PM 27.8560 -82.6690 146° Southeast 439 505 39,000  Level FlightAware ADS-B
Tue 08:10:53 PM 27.7880 -82.6150 145° Southeast 441 507 39,000  Level FlightAware ADS-B
Tue 08:11:36 PM 27.7160 -82.5600 146° Southeast 442 509 39,000  Level FlightAware ADS-B
Tue 08:12:16 PM 27.6480 -82.5060 145° Southeast 443 510 39,000  Level FlightAware ADS-B
Tue 08:13:00 PM 27.5740 -82.4490 146° Southeast 442 509 39,000  Level FlightAware ADS-B
Tue 08:13:40 PM 27.5060 -82.3970 146° Southeast 442 509 39,000  Level FlightAware ADS-B
Tue 08:14:23 PM 27.4330 -82.3400 145° Southeast 442 509 39,000  Level FlightAware ADS-B
Tue 08:15:03 PM 27.3900 -82.3070 146° Southeast 442 509 39,000  Level FlightAware ADS-B
Tue 08:15:43 PM 27.3490 -82.2750 145° Southeast 443 510 39,000 -608 Level FlightAware ADS-B
Tue 08:16:22 PM 27.2330 -82.1860 146° Southeast 448 516 38,200 -1,465 Descending FlightAware ADS-B
Tue 08:17:09 PM 27.1540 -82.1250 146° Southeast 444 511 36,900 -1,933 Descending FlightAware ADS-B
Tue 08:17:52 PM 27.0800 -82.0680 146° Southeast 452 520 35,300 -2,138 Descending FlightAware ADS-B
Tue 08:18:36 PM 27.0030 -82.0090 146° Southeast 461 531 33,800 -2,071 Descending FlightAware ADS-B
Tue 08:19:16 PM 26.9350 -81.9480 141° Southeast 469 540 32,400 -2,188 Descending FlightAware ADS-B
Tue 08:20:01 PM 26.8590 -81.8750 139° Southeast 469 540 30,700 -2,231 Descending FlightAware ADS-B
Tue 08:20:34 PM 26.8060 -81.8240 139° Southeast 467 537 29,500 -2,410 Descending FlightAware ADS-B
Tue 08:21:58 PM 26.6690 -81.6950 140° Southeast 462 532 26,000 -2,507 Descending FlightAware ADS-B
Tue 08:22:48 PM 26.5880 -81.6180 140° Southeast 455 524 23,900 -2,533 Descending FlightAware ADS-B
Tue 08:23:28 PM 26.5240 -81.5580 140° Southeast 446 513 22,200 -2,400 Descending FlightAware ADS-B
Tue 08:24:08 PM 26.4660 -81.5040 140° Southeast 436 502 20,700 -2,475 Descending FlightAware ADS-B
Tue 08:24:48 PM 26.4010 -81.4430 140° Southeast 424 488 18,900 -2,581 Descending FlightAware ADS-B
Tue 08:25:34 PM 26.3340 -81.3800 140° Southeast 414 476 17,000 -2,126 Descending FlightAware ADS-B
Tue 08:26:09 PM 26.2820 -81.3320 140° Southeast 15,700 -1,926 Descending FlightAware ADS-B
Tue 08:26:55 PM 26.2230 -81.2760 140° Southeast 382 440 14,400 -1,800 Descending FlightAware ADS-B
Tue 08:27:39 PM 26.1610 -81.2180 140° Southeast 360 414 13,000 -1,714 Descending FlightAware ADS-B
Tue 08:28:19 PM 26.1100 -81.1700 140° Southeast 363 418 12,000 -1,500 Descending FlightAware ADS-B
Tue 08:29:03 PM 26.0530 -81.1170 140° Southeast 358 412 10,900 -1,482 Descending FlightAware ADS-B
Tue 08:29:44 PM 26.0030 -81.0700 140° Southeast 337 388 9,900 -1,071 Descending FlightAware ADS-B
Tue 08:29:59 PM 25.9850 -81.0540 141° Southeast 321 369 9,900  Level FlightAware ADS-B
Tue 08:30:24 PM 25.9590 -81.0290 139° Southeast 297 342 9,900 -682 Level FlightAware ADS-B
Tue 08:30:43 PM 25.9360 -81.0080 141° Southeast 297 342 9,400 -1,333 Descending FlightAware ADS-B
Tue 08:31:09 PM 25.9110 -80.9840 139° Southeast 286 329 8,900 -1,154 Descending FlightAware ADS-B
Tue 08:31:35 PM 25.8910 -80.9540 127° Southeast 287 330 8,400 -1,309 Descending FlightAware ADS-B
Tue 08:32:04 PM 25.8740 -80.9140 115° Southeast 280 322 7,700 -1,448 Descending FlightAware ADS-B
Tue 08:32:33 PM 25.8530 -80.8770 122° Southeast 279 321 7,000 -1,418 Descending FlightAware ADS-B
Tue 08:32:59 PM 25.8350 -80.8480 125° Southeast 278 320 6,400 -1,304 Descending FlightAware ADS-B
Tue 08:33:19 PM 25.8200 -80.8250 126° Southeast 276 318 6,000 -900 Descending FlightAware ADS-B
Tue 08:33:39 PM 25.8070 -80.8050 126° Southeast 266 306 5,800 -545 Descending FlightAware ADS-B
Tue 08:34:14 PM 25.7820 -80.7650 125° Southeast 237 273 5,500 -533 Descending FlightAware ADS-B
Tue 08:34:24 PM 25.7770 -80.7570 125° Southeast 234 269 5,400 -750 Descending FlightAware ADS-B
Tue 08:35:10 PM 25.7580 -80.7260 124° Southeast 218 251 4,800 -1,015 Descending FlightAware ADS-B
Tue 08:35:29 PM 25.7440 -80.7030 124° Southeast 222 255 4,300 -1,309 Descending FlightAware ADS-B
Tue 08:36:05 PM 25.7240 -80.6580 116° Southeast 219 252 3,600 -1,219 Descending FlightAware ADS-B
Tue 08:36:33 PM 25.7320 -80.6260 74° East 213 245 3,000 -792 Descending FlightAware ADS-B
Tue 08:36:58 PM 25.7400 -80.6000 71° East 216 249 2,900 -109 Descending FlightAware ADS-B
Tue 08:37:28 PM 25.7500 -80.5680 71° East 214 246 2,900  Level FlightAware ADS-B
Tue 08:37:43 PM 25.7550 -80.5520 71° East 214 246 2,900  Level FlightAware ADS-B
Tue 08:38:09 PM 25.7630 -80.5280 70° East 193 222 2,900  Level FlightAware ADS-B
Tue 08:38:23 PM 25.7680 -80.5140 68° East 187 215 2,900  Level FlightAware ADS-B
Tue 08:38:48 PM 25.7740 -80.4910 74° East 183 211 2,900 -429 Level FlightAware ADS-B
Tue 08:39:19 PM 25.7800 -80.4640 76° East 186 214 2,500 -900 Descending FlightAware ADS-B
Tue 08:39:48 PM 25.7810 -80.4350 88° East 184 212 2,000 -1,067 Descending FlightAware ADS-B
Tue 08:40:04 PM 25.7820 -80.4180 86° East 180 207 1,700 -1,000 Descending FlightAware ADS-B
Tue 08:40:24 PM 25.7830 -80.4010 86° East 178 205 1,400 -840 Descending FlightAware ADS-B
Tue 08:40:54 PM 25.7840 -80.3750 88° East 157 181 1,000 -730 Descending FlightAware ADS-B
Tue 08:41:38 PM 25.7850 -80.3450 88° East 148 170 500 -771 Descending FlightAware ADS-B
Tue 08:42:04 PM 25.7860 -80.3220 87° East 148 170 100 -923 Descending FlightAware ADS-B
Tue 08:42:30 PM 25.7870 -80.3020 87° East 140 161 -231 Descending FlightAware ADS-B
Tue 08:42:50 PM 25.7870 -80.2920 90° East 72 83  Level FlightAware ADS-B

Login

Don't have an account? Register now (free) for customized features, flight alerts, and more!